createdAt,value
2019-02-28T00:01:20.565Z,21.4
2019-02-28T00:11:19.767Z,21.4
2019-02-28T00:21:18.972Z,21.4
2019-02-28T00:31:18.173Z,21.4
2019-02-28T00:41:17.425Z,21.4
2019-02-28T00:51:16.578Z,21.4
2019-02-28T01:01:15.782Z,21.4
2019-02-28T01:11:14.982Z,21.4
2019-02-28T01:21:14.184Z,21.4
2019-02-28T01:31:13.390Z,21.3
2019-02-28T01:41:12.594Z,21.3
2019-02-28T01:51:11.787Z,21.3
2019-02-28T02:01:10.989Z,21.3
2019-02-28T02:11:10.198Z,21.3
2019-02-28T02:21:09.392Z,21.3
2019-02-28T02:31:08.596Z,21.3
2019-02-28T02:41:07.795Z,21.3
2019-02-28T02:51:10.530Z,21.3
2019-02-28T03:01:06.208Z,21.3
2019-02-28T03:11:05.404Z,21.3
2019-02-28T03:21:04.663Z,21.2
2019-02-28T03:31:11.473Z,21.2
2019-02-28T03:41:03.013Z,21.2
2019-02-28T03:51:02.213Z,21.3
2019-02-28T04:01:08.541Z,21.2
2019-02-28T04:11:00.617Z,21.2
2019-02-28T04:20:59.818Z,21.2
2019-02-28T04:30:59.020Z,21.2
2019-02-28T04:40:59.013Z,21.2
2019-02-28T04:50:57.421Z,21.2
2019-02-28T05:00:56.621Z,21.3
2019-02-28T05:10:56.804Z,21.4
2019-02-28T05:20:55.031Z,21.4
2019-02-28T05:30:54.235Z,21.6
2019-02-28T05:40:55.462Z,21.9
2019-02-28T05:50:53.188Z,21.9
2019-02-28T06:00:51.849Z,22
2019-02-28T06:10:51.054Z,22.1
2019-02-28T06:20:51.348Z,22.1
2019-02-28T06:30:49.463Z,22.3
2019-02-28T06:40:48.671Z,22.4
2019-02-28T06:50:47.870Z,22.4
2019-02-28T07:00:47.444Z,22.5
2019-02-28T07:10:48.362Z,22.4
2019-02-28T07:20:47.132Z,22.3
2019-02-28T07:30:44.690Z,22.4
2019-02-28T07:40:45.646Z,22.3
2019-02-28T07:50:43.416Z,22.3
2019-02-28T08:00:42.306Z,22.4
2019-02-28T08:10:41.506Z,22.2
2019-02-28T08:20:40.713Z,22.2
2019-02-28T08:30:39.922Z,22.3
2019-02-28T08:40:39.139Z,22.7
2019-02-28T08:50:38.338Z,22.3
2019-02-28T09:00:37.829Z,22.5
2019-02-28T09:10:37.461Z,22.3
2019-02-28T09:20:35.966Z,22.3
2019-02-28T09:30:35.170Z,22.3
2019-02-28T09:40:34.383Z,22.3
2019-02-28T09:50:33.591Z,22.1
2019-02-28T10:00:32.798Z,22.1
2019-02-28T10:10:32.005Z,21.9
2019-02-28T10:20:31.217Z,21.9
2019-02-28T10:30:31.926Z,22.1
2019-02-28T10:40:29.639Z,22.1
2019-02-28T10:50:31.907Z,22.2
2019-02-28T11:04:53.710Z,22
2019-02-28T11:15:47.850Z,22.2
2019-02-28T11:25:43.048Z,22.2
2019-02-28T11:35:42.259Z,22.1
2019-02-28T11:45:41.465Z,22.2
2019-02-28T11:55:40.672Z,22.2
2019-02-28T12:05:39.877Z,22.2
2019-02-28T12:15:39.287Z,22.1
2019-02-28T12:25:39.480Z,22.3
2019-02-28T12:35:40.448Z,22.1
2019-02-28T12:45:36.983Z,22.3
2019-02-28T12:55:38.776Z,22.2
2019-02-28T13:05:35.549Z,22.1
2019-02-28T13:15:34.753Z,22.1
2019-02-28T13:25:33.967Z,22.1
2019-02-28T13:35:33.158Z,22
2019-02-28T13:45:32.361Z,22
2019-02-28T13:55:31.564Z,22
2019-02-28T14:05:30.766Z,22.1
2019-02-28T14:15:30.019Z,22.1
2019-02-28T14:25:29.181Z,22.1
2019-02-28T14:35:33.836Z,22
2019-02-28T14:45:27.575Z,22.1
2019-02-28T14:55:29.216Z,22.1
2019-02-28T15:05:25.983Z,22
2019-02-28T15:15:25.180Z,21.9
2019-02-28T15:25:24.383Z,22.1
2019-02-28T15:35:23.586Z,22.1
2019-02-28T15:45:22.845Z,22.1
2019-02-28T15:55:22.002Z,22
2019-02-28T16:05:21.269Z,22
2019-02-28T16:15:20.413Z,22
2019-02-28T16:25:19.678Z,22
2019-02-28T16:35:18.832Z,22.1
2019-02-28T16:45:18.039Z,22.1
2019-02-28T16:55:17.247Z,22.1
2019-02-28T17:05:16.458Z,22.3
2019-02-28T17:15:15.664Z,22.4
2019-02-28T17:25:14.870Z,22.4
2019-02-28T17:35:14.083Z,22.5
2019-02-28T17:41:43.368Z,22.4
2019-02-28T17:51:42.575Z,22.3
2019-02-28T18:01:41.786Z,22.4
2019-02-28T18:11:40.998Z,22.3
2019-02-28T18:21:40.983Z,22.2
2019-02-28T18:31:39.446Z,22.3
2019-02-28T18:41:38.851Z,22.2
2019-02-28T18:51:37.963Z,22.1
2019-02-28T19:01:37.259Z,22.1
2019-02-28T19:11:36.545Z,22.1
2019-02-28T19:21:35.832Z,22.1
2019-02-28T19:31:35.123Z,22.1
2019-02-28T19:41:36.481Z,22.4
2019-02-28T19:51:33.592Z,22.3
2019-02-28T20:01:32.750Z,22.3
2019-02-28T20:11:31.964Z,22
2019-02-28T20:21:31.179Z,22.2
2019-02-28T20:31:30.396Z,22.2
2019-02-28T20:41:29.623Z,22.3
2019-02-28T20:51:28.840Z,22.3
2019-02-28T21:01:28.096Z,22.2
2019-02-28T21:11:21.187Z,22.2
2019-02-28T21:21:20.401Z,22.2
2019-02-28T21:31:19.614Z,22.2
2019-02-28T21:41:18.831Z,22.3
2019-02-28T21:51:18.041Z,22.2
2019-02-28T22:01:17.250Z,22.2
2019-02-28T22:11:16.508Z,22.1
2019-02-28T22:21:15.804Z,22.1
2019-02-28T22:31:15.090Z,22.1
2019-02-28T22:41:14.378Z,22
2019-02-28T22:51:13.668Z,21.9
2019-02-28T23:01:14.612Z,21.9
2019-02-28T23:11:12.160Z,21.9
2019-02-28T23:21:11.364Z,21.9
2019-02-28T23:31:10.575Z,21.9
2019-02-28T23:41:09.828Z,21.8
2019-02-28T23:51:08.984Z,21.8
